sensor_id;sensor_type;location;lat;lon;timestamp;pressure;altitude;pressure_sealevel;temperature;humidity
43436;BME280;36399;51.444;-2.018;2024-03-17T00:00:32;98466.88;;;10.62;100.00
43436;BME280;36399;51.444;-2.018;2024-03-17T00:02:58;98472.97;;;10.64;100.00
43436;BME280;36399;51.444;-2.018;2024-03-17T00:05:24;98456.31;;;10.65;100.00
43436;BME280;36399;51.444;-2.018;2024-03-17T00:07:50;98454.59;;;10.64;100.00
43436;BME280;36399;51.444;-2.018;2024-03-17T00:10:16;98455.50;;;10.63;100.00
43436;BME280;36399;51.444;-2.018;2024-03-17T00:12:42;98459.00;;;10.62;100.00
43436;BME280;36399;51.444;-2.018;2024-03-17T00:15:08;98473.16;;;10.55;100.00
43436;BME280;36399;51.444;-2.018;2024-03-17T00:17:34;98476.66;;;10.54;100.00
43436;BME280;36399;51.444;-2.018;2024-03-17T00:20:01;98482.97;;;10.44;100.00
43436;BME280;36399;51.444;-2.018;2024-03-17T00:22:35;98486.50;;;10.40;100.00
43436;BME280;36399;51.444;-2.018;2024-03-17T00:25:06;98493.56;;;10.38;100.00
43436;BME280;36399;51.444;-2.018;2024-03-17T00:27:32;98481.44;;;10.31;100.00
43436;BME280;36399;51.444;-2.018;2024-03-17T00:29:59;98485.81;;;10.30;100.00
43436;BME280;36399;51.444;-2.018;2024-03-17T00:32:25;98486.81;;;10.25;100.00
43436;BME280;36399;51.444;-2.018;2024-03-17T00:34:51;98490.31;;;10.24;100.00
43436;BME280;36399;51.444;-2.018;2024-03-17T00:37:17;98479.81;;;10.24;100.00
43436;BME280;36399;51.444;-2.018;2024-03-17T00:39:43;98475.53;;;10.18;100.00
43436;BME280;36399;51.444;-2.018;2024-03-17T00:42:09;98472.94;;;10.17;100.00
43436;BME280;36399;51.444;-2.018;2024-03-17T00:44:35;98458.03;;;10.19;100.00
43436;BME280;36399;51.444;-2.018;2024-03-17T00:47:01;98445.84;;;10.16;100.00
43436;BME280;36399;51.444;-2.018;2024-03-17T00:49:27;98434.44;;;10.19;100.00
43436;BME280;36399;51.444;-2.018;2024-03-17T00:51:53;98415.25;;;10.17;100.00
43436;BME280;36399;51.444;-2.018;2024-03-17T00:54:19;98410.91;;;10.14;100.00
43436;BME280;36399;51.444;-2.018;2024-03-17T00:56:47;98393.44;;;10.15;100.00
43436;BME280;36399;51.444;-2.018;2024-03-17T00:59:13;98382.97;;;10.13;100.00
43436;BME280;36399;51.444;-2.018;2024-03-17T01:01:39;98365.56;;;10.09;100.00
43436;BME280;36399;51.444;-2.018;2024-03-17T01:04:05;98359.41;;;10.11;100.00
43436;BME280;36399;51.444;-2.018;2024-03-17T01:06:31;98352.56;;;10.04;100.00
43436;BME280;36399;51.444;-2.018;2024-03-17T01:09:00;98330.59;;;10.10;100.00
43436;BME280;36399;51.444;-2.018;2024-03-17T01:11:26;98318.50;;;10.03;100.00
43436;BME280;36399;51.444;-2.018;2024-03-17T01:13:53;98310.63;;;10.04;100.00
43436;BME280;36399;51.444;-2.018;2024-03-17T01:16:19;98308.13;;;9.98;100.00
43436;BME280;36399;51.444;-2.018;2024-03-17T01:18:45;98278.28;;;10.04;100.00
43436;BME280;36399;51.444;-2.018;2024-03-17T01:21:11;98261.69;;;10.03;100.00
43436;BME280;36399;51.444;-2.018;2024-03-17T01:23:37;98250.47;;;9.97;100.00
43436;BME280;36399;51.444;-2.018;2024-03-17T01:26:04;98238.28;;;9.96;100.00
43436;BME280;36399;51.444;-2.018;2024-03-17T01:28:30;98231.25;;;9.98;100.00
43436;BME280;36399;51.444;-2.018;2024-03-17T01:30:56;98212.00;;;9.99;100.00
43436;BME280;36399;51.444;-2.018;2024-03-17T01:33:22;98194.41;;;10.04;100.00
43436;BME280;36399;51.444;-2.018;2024-03-17T01:35:48;98175.22;;;10.02;100.00
43436;BME280;36399;51.444;-2.018;2024-03-17T01:38:14;98163.06;;;9.99;100.00
43436;BME280;36399;51.444;-2.018;2024-03-17T01:40:40;98150.91;;;9.95;100.00
43436;BME280;36399;51.444;-2.018;2024-03-17T01:43:10;98124.59;;;10.00;100.00
43436;BME280;36399;51.444;-2.018;2024-03-17T01:45:37;98105.44;;;9.98;100.00
43436;BME280;36399;51.444;-2.018;2024-03-17T01:48:03;98102.84;;;9.96;100.00
43436;BME280;36399;51.444;-2.018;2024-03-17T01:50:37;98082.81;;;9.94;100.00
43436;BME280;36399;51.444;-2.018;2024-03-17T01:53:05;98067.13;;;9.92;100.00
43436;BME280;36399;51.444;-2.018;2024-03-17T01:55:38;98051.31;;;9.95;100.00
43436;BME280;36399;51.444;-2.018;2024-03-17T01:58:05;98025.13;;;9.95;100.00
43436;BME280;36399;51.444;-2.018;2024-03-17T02:00:36;98007.66;;;9.94;100.00
43436;BME280;36399;51.444;-2.018;2024-03-17T02:03:07;97996.38;;;9.92;100.00
43436;BME280;36399;51.444;-2.018;2024-03-17T02:05:36;97966.47;;;9.99;100.00
43436;BME280;36399;51.444;-2.018;2024-03-17T02:08:06;97954.50;;;9.89;100.00
43436;BME280;36399;51.444;-2.018;2024-03-17T02:10:42;97937.88;;;9.90;100.00
43436;BME280;36399;51.444;-2.018;2024-03-17T02:13:09;97926.50;;;9.91;100.00
43436;BME280;36399;51.444;-2.018;2024-03-17T02:15:35;97908.19;;;9.90;100.00
43436;BME280;36399;51.444;-2.018;2024-03-17T02:18:01;97813.06;;;9.86;100.00
43436;BME280;36399;51.444;-2.018;2024-03-17T02:20:27;97798.19;;;9.87;100.00
43436;BME280;36399;51.444;-2.018;2024-03-17T02:23:12;97765.88;;;9.86;100.00
43436;BME280;36399;51.444;-2.018;2024-03-17T02:25:38;97739.63;;;9.89;100.00
43436;BME280;36399;51.444;-2.018;2024-03-17T02:28:04;97718.50;;;9.95;100.00
43436;BME280;36399;51.444;-2.018;2024-03-17T02:30:33;97699.47;;;9.87;100.00
43436;BME280;36399;51.444;-2.018;2024-03-17T02:32:59;97682.03;;;9.86;100.00
43436;BME280;36399;51.444;-2.018;2024-03-17T02:35:25;97641.81;;;9.89;100.00
43436;BME280;36399;51.444;-2.018;2024-03-17T02:37:52;97636.50;;;9.92;100.00
43436;BME280;36399;51.444;-2.018;2024-03-17T02:40:18;97612.94;;;9.90;100.00
43436;BME280;36399;51.444;-2.018;2024-03-17T02:42:45;97595.38;;;9.94;100.00
43436;BME280;36399;51.444;-2.018;2024-03-17T02:45:11;97580.59;;;9.91;100.00
43436;BME280;36399;51.444;-2.018;2024-03-17T02:47:40;97565.84;;;9.89;100.00
43436;BME280;36399;51.444;-2.018;2024-03-17T02:50:07;97549.22;;;9.88;100.00
43436;BME280;36399;51.444;-2.018;2024-03-17T02:52:34;97549.22;;;9.88;100.00
43436;BME280;36399;51.444;-2.018;2024-03-17T02:55:01;97534.28;;;9.92;100.00
43436;BME280;36399;51.444;-2.018;2024-03-17T02:57:27;97514.19;;;9.92;100.00
43436;BME280;36399;51.444;-2.018;2024-03-17T02:59:56;97504.47;;;9.96;100.00
43436;BME280;36399;51.444;-2.018;2024-03-17T03:02:23;97491.56;;;9.88;100.00
43436;BME280;36399;51.444;-2.018;2024-03-17T03:04:49;97462.59;;;9.94;100.00
43436;BME280;36399;51.444;-2.018;2024-03-17T03:07:15;97456.63;;;9.89;100.00
43436;BME280;36399;51.444;-2.018;2024-03-17T03:09:41;97443.53;;;9.89;100.00
43436;BME280;36399;51.444;-2.018;2024-03-17T03:12:07;97435.69;;;9.89;100.00
43436;BME280;36399;51.444;-2.018;2024-03-17T03:14:34;97427.72;;;9.92;100.00
43436;BME280;36399;51.444;-2.018;2024-03-17T03:17:00;97418.19;;;9.90;100.00
43436;BME280;36399;51.444;-2.018;2024-03-17T03:19:27;97396.13;;;9.97;100.00
43436;BME280;36399;51.444;-2.018;2024-03-17T03:21:53;97397.19;;;9.91;100.00
43436;BME280;36399;51.444;-2.018;2024-03-17T03:24:19;97394.63;;;9.88;100.00
43436;BME280;36399;51.444;-2.018;2024-03-17T03:26:45;97380.78;;;9.85;100.00
43436;BME280;36399;51.444;-2.018;2024-03-17T03:29:11;97379.94;;;9.84;100.00
43436;BME280;36399;51.444;-2.018;2024-03-17T03:31:37;97381.69;;;9.84;100.00
43436;BME280;36399;51.444;-2.018;2024-03-17T03:34:07;97369.44;;;9.84;100.00
43436;BME280;36399;51.444;-2.018;2024-03-17T03:36:38;97363.25;;;9.87;100.00
43436;BME280;36399;51.444;-2.018;2024-03-17T03:39:04;97360.63;;;9.87;100.00
43436;BME280;36399;51.444;-2.018;2024-03-17T03:41:31;97367.72;;;9.83;100.00
43436;BME280;36399;51.444;-2.018;2024-03-17T03:43:58;97359.94;;;9.81;100.00
43436;BME280;36399;51.444;-2.018;2024-03-17T03:46:24;97350.16;;;9.87;100.00
43436;BME280;36399;51.444;-2.018;2024-03-17T03:48:51;97341.47;;;9.85;100.00
43436;BME280;36399;51.444;-2.018;2024-03-17T03:51:17;97344.22;;;9.81;100.00
43436;BME280;36399;51.444;-2.018;2024-03-17T03:53:43;97327.41;;;9.87;100.00
43436;BME280;36399;51.444;-2.018;2024-03-17T03:56:09;97313.50;;;9.85;100.00
43436;BME280;36399;51.444;-2.018;2024-03-17T03:58:37;97310.09;;;9.83;100.00
43436;BME280;36399;51.444;-2.018;2024-03-17T04:01:07;97305.81;;;9.80;100.00
43436;BME280;36399;51.444;-2.018;2024-03-17T04:03:34;97291.75;;;9.83;100.00
43436;BME280;36399;51.444;-2.018;2024-03-17T04:06:07;97298.97;;;9.76;100.00
43436;BME280;36399;51.444;-2.018;2024-03-17T04:08:34;97299.03;;;9.75;100.00
43436;BME280;36399;51.444;-2.018;2024-03-17T04:11:01;97298.75;;;9.82;100.00
43436;BME280;36399;51.444;-2.018;2024-03-17T04:13:31;97281.34;;;9.81;100.00
43436;BME280;36399;51.444;-2.018;2024-03-17T04:15:57;97282.94;;;9.86;100.00
43436;BME280;36399;51.444;-2.018;2024-03-17T04:18:27;97285.72;;;9.81;100.00
43436;BME280;36399;51.444;-2.018;2024-03-17T04:20:57;97280.38;;;9.84;100.00
43436;BME280;36399;51.444;-2.018;2024-03-17T04:23:23;97271.59;;;9.85;100.00
43436;BME280;36399;51.444;-2.018;2024-03-17T04:25:51;97271.72;;;9.82;100.00
43436;BME280;36399;51.444;-2.018;2024-03-17T04:28:17;97275.13;;;9.84;100.00
43436;BME280;36399;51.444;-2.018;2024-03-17T04:30:43;97257.59;;;9.86;100.00
43436;BME280;36399;51.444;-2.018;2024-03-17T04:33:09;97267.16;;;9.87;100.00
43436;BME280;36399;51.444;-2.018;2024-03-17T04:35:40;97269.09;;;9.82;100.00
43436;BME280;36399;51.444;-2.018;2024-03-17T04:38:07;97273.53;;;9.80;100.00
43436;BME280;36399;51.444;-2.018;2024-03-17T04:40:33;97260.25;;;9.85;100.00
43436;BME280;36399;51.444;-2.018;2024-03-17T04:43:00;97264.72;;;9.82;100.00
43436;BME280;36399;51.444;-2.018;2024-03-17T04:45:26;97255.06;;;9.83;100.00
43436;BME280;36399;51.444;-2.018;2024-03-17T04:47:52;97247.31;;;9.80;100.00
43436;BME280;36399;51.444;-2.018;2024-03-17T04:50:18;97252.47;;;9.83;100.00
43436;BME280;36399;51.444;-2.018;2024-03-17T04:52:44;97255.88;;;9.85;100.00
43436;BME280;36399;51.444;-2.018;2024-03-17T04:55:10;97247.16;;;9.85;100.00
43436;BME280;36399;51.444;-2.018;2024-03-17T04:57:36;97245.28;;;9.88;100.00
43436;BME280;36399;51.444;-2.018;2024-03-17T05:00:03;97233.88;;;9.91;100.00
43436;BME280;36399;51.444;-2.018;2024-03-17T05:02:33;97238.34;;;9.87;100.00
43436;BME280;36399;51.444;-2.018;2024-03-17T05:04:59;97233.09;;;9.87;100.00
43436;BME280;36399;51.444;-2.018;2024-03-17T05:07:25;97226.06;;;9.89;100.00
43436;BME280;36399;51.444;-2.018;2024-03-17T05:09:51;97220.06;;;9.86;100.00
43436;BME280;36399;51.444;-2.018;2024-03-17T05:12:17;97230.47;;;9.87;100.00
43436;BME280;36399;51.444;-2.018;2024-03-17T05:14:43;97233.22;;;9.84;100.00
43436;BME280;36399;51.444;-2.018;2024-03-17T05:17:09;97224.56;;;9.82;100.00
43436;BME280;36399;51.444;-2.018;2024-03-17T05:19:35;97227.06;;;9.85;100.00
43436;BME280;36399;51.444;-2.018;2024-03-17T05:22:01;97220.00;;;9.87;100.00
43436;BME280;36399;51.444;-2.018;2024-03-17T05:24:27;97223.59;;;9.85;100.00
43436;BME280;36399;51.444;-2.018;2024-03-17T05:26:53;97219.09;;;9.88;100.00
43436;BME280;36399;51.444;-2.018;2024-03-17T05:29:19;97223.53;;;9.86;100.00
43436;BME280;36399;51.444;-2.018;2024-03-17T05:31:45;97228.88;;;9.83;100.00
43436;BME280;36399;51.444;-2.018;2024-03-17T05:37:00;97217.44;;;9.86;100.00
43436;BME280;36399;51.444;-2.018;2024-03-17T05:39:27;97200.72;;;9.90;100.00
43436;BME280;36399;51.444;-2.018;2024-03-17T05:41:53;97199.25;;;9.81;100.00
43436;BME280;36399;51.444;-2.018;2024-03-17T05:44:19;97197.38;;;9.85;100.00
43436;BME280;36399;51.444;-2.018;2024-03-17T05:46:45;97198.25;;;9.85;100.00
43436;BME280;36399;51.444;-2.018;2024-03-17T05:49:11;97196.53;;;9.84;100.00
43436;BME280;36399;51.444;-2.018;2024-03-17T05:51:37;97190.66;;;9.77;100.00
43436;BME280;36399;51.444;-2.018;2024-03-17T05:54:03;97179.00;;;9.86;100.00
43436;BME280;36399;51.444;-2.018;2024-03-17T05:56:29;97175.56;;;9.84;100.00
43436;BME280;36399;51.444;-2.018;2024-03-17T05:58:55;97166.81;;;9.85;100.00
43436;BME280;36399;51.444;-2.018;2024-03-17T06:01:21;97163.28;;;9.86;100.00
43436;BME280;36399;51.444;-2.018;2024-03-17T06:03:48;97153.94;;;9.79;100.00
43436;BME280;36399;51.444;-2.018;2024-03-17T06:06:14;97157.34;;;9.81;100.00
43436;BME280;36399;51.444;-2.018;2024-03-17T06:08:40;97148.47;;;9.85;100.00
43436;BME280;36399;51.444;-2.018;2024-03-17T06:11:06;97123.19;;;9.84;100.00
43436;BME280;36399;51.444;-2.018;2024-03-17T06:13:34;97125.19;;;9.77;100.00
43436;BME280;36399;51.444;-2.018;2024-03-17T06:16:02;97120.84;;;9.76;100.00
43436;BME280;36399;51.444;-2.018;2024-03-17T06:18:29;97108.44;;;9.81;100.00
43436;BME280;36399;51.444;-2.018;2024-03-17T06:20:55;97098.94;;;9.79;100.00
43436;BME280;36399;51.444;-2.018;2024-03-17T06:23:24;97099.66;;;9.82;100.00
43436;BME280;36399;51.444;-2.018;2024-03-17T06:25:54;97096.31;;;9.79;100.00
43436;BME280;36399;51.444;-2.018;2024-03-17T06:28:22;97083.09;;;9.82;100.00
43436;BME280;36399;51.444;-2.018;2024-03-17T06:30:56;97076.03;;;9.84;100.00
43436;BME280;36399;51.444;-2.018;2024-03-17T06:33:25;97074.19;;;9.86;100.00
43436;BME280;36399;51.444;-2.018;2024-03-17T06:35:52;97068.16;;;9.84;100.00
43436;BME280;36399;51.444;-2.018;2024-03-17T06:38:18;97051.53;;;9.85;100.00
43436;BME280;36399;51.444;-2.018;2024-03-17T06:40:51;97035.94;;;9.82;100.00
43436;BME280;36399;51.444;-2.018;2024-03-17T06:43:17;97007.56;;;9.93;100.00
43436;BME280;36399;51.444;-2.018;2024-03-17T06:45:44;96999.84;;;9.90;100.00
43436;BME280;36399;51.444;-2.018;2024-03-17T06:48:19;96986.50;;;9.96;100.00
43436;BME280;36399;51.444;-2.018;2024-03-17T06:50:44;96992.06;;;9.87;100.00
43436;BME280;36399;51.444;-2.018;2024-03-17T06:53:10;96985.81;;;9.91;100.00
43436;BME280;36399;51.444;-2.018;2024-03-17T06:55:36;96973.44;;;9.95;100.00
43436;BME280;36399;51.444;-2.018;2024-03-17T06:58:03;96968.41;;;9.90;100.00
43436;BME280;36399;51.444;-2.018;2024-03-17T07:00:29;96962.13;;;9.94;100.00
43436;BME280;36399;51.444;-2.018;2024-03-17T07:02:55;96959.56;;;9.93;100.00
43436;BME280;36399;51.444;-2.018;2024-03-17T07:05:21;96949.81;;;9.96;100.00
43436;BME280;36399;51.444;-2.018;2024-03-17T07:07:47;96938.47;;;9.96;100.00
43436;BME280;36399;51.444;-2.018;2024-03-17T07:10:13;96941.94;;;9.96;100.00
43436;BME280;36399;51.444;-2.018;2024-03-17T07:12:40;96920.78;;;10.01;100.00
43436;BME280;36399;51.444;-2.018;2024-03-17T07:15:06;96926.03;;;10.01;100.00
43436;BME280;36399;51.444;-2.018;2024-03-17T07:17:33;96912.88;;;10.02;100.00
43436;BME280;36399;51.444;-2.018;2024-03-17T07:19:59;96903.97;;;10.06;100.00
43436;BME280;36399;51.444;-2.018;2024-03-17T07:22:26;96887.78;;;10.17;100.00
43436;BME280;36399;51.444;-2.018;2024-03-17T07:24:52;96885.16;;;10.17;100.00
43436;BME280;36399;51.444;-2.018;2024-03-17T07:27:22;96875.66;;;10.15;100.00
43436;BME280;36399;51.444;-2.018;2024-03-17T07:29:48;96877.63;;;10.09;100.00
43436;BME280;36399;51.444;-2.018;2024-03-17T07:32:14;96876.72;;;10.10;100.00
43436;BME280;36399;51.444;-2.018;2024-03-17T07:34:40;96867.66;;;10.18;100.00
43436;BME280;36399;51.444;-2.018;2024-03-17T07:37:06;96862.50;;;10.16;100.00
43436;BME280;36399;51.444;-2.018;2024-03-17T07:39:32;96848.94;;;10.27;100.00
43436;BME280;36399;51.444;-2.018;2024-03-17T07:41:59;96837.53;;;10.28;100.00
43436;BME280;36399;51.444;-2.018;2024-03-17T07:44:28;96838.66;;;10.22;100.00
43436;BME280;36399;51.444;-2.018;2024-03-17T07:47:00;96821.59;;;10.32;100.00
43436;BME280;36399;51.444;-2.018;2024-03-17T07:49:26;96822.47;;;10.33;100.00
43436;BME280;36399;51.444;-2.018;2024-03-17T07:51:52;96824.28;;;10.31;100.00
43436;BME280;36399;51.444;-2.018;2024-03-17T07:54:18;96824.03;;;10.37;100.00
43436;BME280;36399;51.444;-2.018;2024-03-17T07:56:45;96822.19;;;10.39;100.00
43436;BME280;36399;51.444;-2.018;2024-03-17T07:59:12;96810.31;;;10.51;100.00
43436;BME280;36399;51.444;-2.018;2024-03-17T08:01:42;96812.22;;;10.47;100.00
43436;BME280;36399;51.444;-2.018;2024-03-17T08:04:08;96793.16;;;10.62;100.00
43436;BME280;36399;51.444;-2.018;2024-03-17T08:06:34;96802.09;;;10.58;100.00
43436;BME280;36399;51.444;-2.018;2024-03-17T08:09:00;96807.13;;;10.63;100.00
43436;BME280;36399;51.444;-2.018;2024-03-17T08:11:27;96803.09;;;10.74;100.00
43436;BME280;36399;51.444;-2.018;2024-03-17T08:13:53;96793.22;;;10.80;100.00
43436;BME280;36399;51.444;-2.018;2024-03-17T08:16:20;96796.00;;;10.77;100.00
43436;BME280;36399;51.444;-2.018;2024-03-17T08:18:46;96792.31;;;10.81;100.00
43436;BME280;36399;51.444;-2.018;2024-03-17T08:21:12;96802.66;;;10.84;100.00
43436;BME280;36399;51.444;-2.018;2024-03-17T08:23:38;96816.97;;;10.77;100.00
43436;BME280;36399;51.444;-2.018;2024-03-17T08:26:12;96829.31;;;10.74;100.00
43436;BME280;36399;51.444;-2.018;2024-03-17T08:28:38;96849.09;;;10.82;100.00
43436;BME280;36399;51.444;-2.018;2024-03-17T08:31:05;96834.53;;;10.95;100.00
43436;BME280;36399;51.444;-2.018;2024-03-17T08:33:32;96841.41;;;10.97;100.00
43436;BME280;36399;51.444;-2.018;2024-03-17T08:36:03;96849.59;;;10.90;100.00
43436;BME280;36399;51.444;-2.018;2024-03-17T08:38:31;96855.63;;;10.92;100.00
43436;BME280;36399;51.444;-2.018;2024-03-17T08:41:08;96868.75;;;10.92;100.00
43436;BME280;36399;51.444;-2.018;2024-03-17T08:43:35;96895.00;;;10.92;100.00
43436;BME280;36399;51.444;-2.018;2024-03-17T08:46:06;96893.59;;;11.03;100.00
43436;BME280;36399;51.444;-2.018;2024-03-17T08:48:34;96908.22;;;11.09;100.00
43436;BME280;36399;51.444;-2.018;2024-03-17T08:51:01;96903.59;;;11.14;100.00
43436;BME280;36399;51.444;-2.018;2024-03-17T08:53:28;96928.16;;;11.13;100.00
43436;BME280;36399;51.444;-2.018;2024-03-17T08:55:55;96951.06;;;11.10;100.00
43436;BME280;36399;51.444;-2.018;2024-03-17T08:58:22;96983.41;;;11.10;100.00
43436;BME280;36399;51.444;-2.018;2024-03-17T09:00:48;97020.16;;;11.10;100.00
43436;BME280;36399;51.444;-2.018;2024-03-17T09:03:14;97055.06;;;11.12;100.00
43436;BME280;36399;51.444;-2.018;2024-03-17T09:05:42;97106.78;;;11.30;100.00
43436;BME280;36399;51.444;-2.018;2024-03-17T09:08:17;97129.94;;;11.41;100.00
43436;BME280;36399;51.444;-2.018;2024-03-17T09:10:44;97148.59;;;11.55;100.00
43436;BME280;36399;51.444;-2.018;2024-03-17T09:13:13;97159.81;;;11.59;100.00
43436;BME280;36399;51.444;-2.018;2024-03-17T09:15:59;97163.69;;;11.70;100.00
43436;BME280;36399;51.444;-2.018;2024-03-17T09:18:27;97166.50;;;11.66;100.00
43436;BME280;36399;51.444;-2.018;2024-03-17T09:21:05;97177.94;;;11.65;100.00
43436;BME280;36399;51.444;-2.018;2024-03-17T09:23:34;97172.81;;;11.82;100.00
43436;BME280;36399;51.444;-2.018;2024-03-17T09:26:05;97182.06;;;11.91;100.00
43436;BME280;36399;51.444;-2.018;2024-03-17T09:28:32;97193.22;;;11.96;100.00
43436;BME280;36399;51.444;-2.018;2024-03-17T09:30:59;97217.69;;;11.98;100.00
43436;BME280;36399;51.444;-2.018;2024-03-17T09:33:27;97235.41;;;12.13;100.00
43436;BME280;36399;51.444;-2.018;2024-03-17T09:36:06;97264.63;;;12.26;100.00
43436;BME280;36399;51.444;-2.018;2024-03-17T09:38:34;97285.75;;;12.43;100.00
43436;BME280;36399;51.444;-2.018;2024-03-17T09:41:00;97309.41;;;12.63;100.00
43436;BME280;36399;51.444;-2.018;2024-03-17T09:43:32;97348.69;;;12.68;100.00
43436;BME280;36399;51.444;-2.018;2024-03-17T09:45:59;97401.53;;;12.82;100.00
43436;BME280;36399;51.444;-2.018;2024-03-17T09:48:28;97514.28;;;12.52;100.00
43436;BME280;36399;51.444;-2.018;2024-03-17T09:50:59;97605.66;;;12.49;100.00
43436;BME280;36399;51.444;-2.018;2024-03-17T09:53:34;97708.09;;;12.30;100.00
43436;BME280;36399;51.444;-2.018;2024-03-17T09:56:06;97764.38;;;12.49;100.00
43436;BME280;36399;51.444;-2.018;2024-03-17T09:58:34;97815.69;;;12.61;100.00
43436;BME280;36399;51.444;-2.018;2024-03-17T10:01:00;97878.47;;;12.72;100.00
43436;BME280;36399;51.444;-2.018;2024-03-17T10:03:46;97938.09;;;12.96;100.00
43436;BME280;36399;51.444;-2.018;2024-03-17T10:06:16;98011.53;;;13.05;100.00
43436;BME280;36399;51.444;-2.018;2024-03-17T10:11:14;98112.53;;;14.01;100.00
43436;BME280;36399;51.444;-2.018;2024-03-17T10:13:42;98234.53;;;13.82;100.00
43436;BME280;36399;51.444;-2.018;2024-03-17T10:16:23;98367.31;;;13.81;100.00
43436;BME280;36399;51.444;-2.018;2024-03-17T10:19:03;98477.88;;;13.87;100.00
43436;BME280;36399;51.444;-2.018;2024-03-17T10:21:31;98562.09;;;13.94;100.00
43436;BME280;36399;51.444;-2.018;2024-03-17T10:24:23;98656.97;;;13.97;100.00
43436;BME280;36399;51.444;-2.018;2024-03-17T10:26:55;98732.75;;;13.92;100.00
43436;BME280;36399;51.444;-2.018;2024-03-17T10:29:34;98783.44;;;14.03;100.00
43436;BME280;36399;51.444;-2.018;2024-03-17T10:32:15;98829.13;;;14.36;100.00
43436;BME280;36399;51.444;-2.018;2024-03-17T10:34:50;98894.38;;;14.65;100.00
43436;BME280;36399;51.444;-2.018;2024-03-17T10:37:17;99032.28;;;14.76;100.00
43436;BME280;36399;51.444;-2.018;2024-03-17T10:39:50;99183.34;;;14.92;100.00
43436;BME280;36399;51.444;-2.018;2024-03-17T10:42:28;99328.22;;;14.74;100.00
43436;BME280;36399;51.444;-2.018;2024-03-17T10:44:54;99403.69;;;14.41;100.00
43436;BME280;36399;51.444;-2.018;2024-03-17T10:47:24;99450.09;;;14.07;100.00
43436;BME280;36399;51.444;-2.018;2024-03-17T10:49:52;99455.72;;;13.85;100.00
43436;BME280;36399;51.444;-2.018;2024-03-17T10:52:19;99436.09;;;13.48;100.00
43436;BME280;36399;51.444;-2.018;2024-03-17T10:54:47;99370.28;;;13.42;100.00
43436;BME280;36399;51.444;-2.018;2024-03-17T11:00:04;99278.78;;;13.47;100.00
43436;BME280;36399;51.444;-2.018;2024-03-17T11:02:32;99280.84;;;13.30;100.00
43436;BME280;36399;51.444;-2.018;2024-03-17T11:05:07;99220.09;;;13.37;100.00
43436;BME280;36399;51.444;-2.018;2024-03-17T11:07:37;99211.22;;;13.41;100.00
43436;BME280;36399;51.444;-2.018;2024-03-17T11:10:09;99212.09;;;13.42;100.00
43436;BME280;36399;51.444;-2.018;2024-03-17T11:20:39;99306.56;;;14.59;100.00
43436;BME280;36399;51.444;-2.018;2024-03-17T11:23:06;99347.19;;;14.92;100.00
43436;BME280;36399;51.444;-2.018;2024-03-17T11:28:02;99504.00;;;14.91;100.00
43436;BME280;36399;51.444;-2.018;2024-03-17T11:38:59;99622.06;;;14.90;100.00
43436;BME280;36399;51.444;-2.018;2024-03-17T11:46:40;99632.00;;;14.76;100.00
43436;BME280;36399;51.444;-2.018;2024-03-17T11:49:07;99651.91;;;14.40;100.00
43436;BME280;36399;51.444;-2.018;2024-03-17T11:51:37;99643.75;;;13.97;100.00
43436;BME280;36399;51.444;-2.018;2024-03-17T11:54:05;99591.41;;;13.68;100.00
43436;BME280;36399;51.444;-2.018;2024-03-17T11:56:31;99509.19;;;13.37;100.00
43436;BME280;36399;51.444;-2.018;2024-03-17T11:59:04;99443.69;;;13.08;100.00
43436;BME280;36399;51.444;-2.018;2024-03-17T12:01:30;99362.06;;;13.03;100.00
43436;BME280;36399;51.444;-2.018;2024-03-17T12:03:56;99250.25;;;13.22;100.00
43436;BME280;36399;51.444;-2.018;2024-03-17T12:06:25;99182.38;;;13.34;100.00
43436;BME280;36399;51.444;-2.018;2024-03-17T12:08:51;99123.09;;;13.56;100.00
43436;BME280;36399;51.444;-2.018;2024-03-17T12:11:17;99125.41;;;13.71;100.00
43436;BME280;36399;51.444;-2.018;2024-03-17T12:13:44;99095.06;;;14.29;100.00
43436;BME280;36399;51.444;-2.018;2024-03-17T12:16:13;99093.97;;;14.75;100.00
43436;BME280;36399;51.444;-2.018;2024-03-17T12:18:39;99208.16;;;14.86;100.00
43436;BME280;36399;51.444;-2.018;2024-03-17T12:21:13;99276.41;;;15.40;100.00
43436;BME280;36399;51.444;-2.018;2024-03-17T12:23:40;99306.72;;;16.57;100.00
43436;BME280;36399;51.444;-2.018;2024-03-17T12:26:18;99447.63;;;18.15;100.00
43436;BME280;36399;51.444;-2.018;2024-03-17T12:28:46;99864.09;;;17.72;100.00
43436;BME280;36399;51.444;-2.018;2024-03-17T12:31:12;100060.63;;;17.65;100.00
43436;BME280;36399;51.444;-2.018;2024-03-17T12:33:38;100144.59;;;18.13;100.00
43436;BME280;36399;51.444;-2.018;2024-03-17T12:36:11;100306.94;;;17.99;100.00
43436;BME280;36399;51.444;-2.018;2024-03-17T12:38:41;100398.69;;;17.64;100.00
43436;BME280;36399;51.444;-2.018;2024-03-17T12:41:16;100414.56;;;17.71;100.00
43436;BME280;36399;51.444;-2.018;2024-03-17T12:43:48;100419.28;;;18.04;100.00
43436;BME280;36399;51.444;-2.018;2024-03-17T12:46:20;100442.34;;;18.93;100.00
43436;BME280;36399;51.444;-2.018;2024-03-17T12:48:46;100520.16;;;19.04;100.00
43436;BME280;36399;51.444;-2.018;2024-03-17T12:51:15;100580.75;;;19.75;100.00
43436;BME280;36399;51.444;-2.018;2024-03-17T12:53:41;100614.75;;;18.74;100.00
43436;BME280;36399;51.444;-2.018;2024-03-17T12:56:07;100610.19;;;17.67;100.00
43436;BME280;36399;51.444;-2.018;2024-03-17T12:58:52;100520.59;;;17.17;100.00
43436;BME280;36399;51.444;-2.018;2024-03-17T13:01:36;100494.56;;;18.03;100.00
43436;BME280;36399;51.444;-2.018;2024-03-17T13:04:05;100515.31;;;18.34;100.00
43436;BME280;36399;51.444;-2.018;2024-03-17T13:06:34;100508.59;;;18.59;100.00
43436;BME280;36399;51.444;-2.018;2024-03-17T13:09:00;100507.09;;;19.35;100.00
43436;BME280;36399;51.444;-2.018;2024-03-17T13:11:26;98529.44;;;19.56;100.00
43436;BME280;36399;51.444;-2.018;2024-03-17T13:13:54;99387.69;;;19.28;100.00
43436;BME280;36399;51.444;-2.018;2024-03-17T13:16:20;99438.94;;;18.62;100.00
43436;BME280;36399;51.444;-2.018;2024-03-17T13:18:46;99478.94;;;18.57;100.00